Leyba, New Mexico
Current Conditions -  °F | °C
As of 6:53 AM on Wednesday 26 Nov 2014 (Local Time) from KCQC Reporting Station
Clear Clear  
Wind Chill: 20°   Ceiling: Unl
Heat Index: 29°   Visibility: 10mi
Dew Point: 14°   Wind: 10mph
Humidity: 54%   Direction: 300°WNW
Pressure: 30.29"   Gusts: NA
Location:  35.2352°N, 105.52°W
Report Text: KCQC 261353Z AUTO 30009KT 10SM CLR M02/M10 A3029 RMK AO2 SLP263 T10171100
Loading
Personal Weather Stations






























Interactive Weather Map New forecast layout! Learn more

10-Day Weather Forecast

Advertisements
Track Severe Weather on mobile